• Join FlightAware (Why Join?)
  • Login
  • US Flag 
06:59PM EDT


 

Airport Tracker/Info


-or-


 

Live Flight TrackerFlight Track Log ✈ ASQ4879 ✈ 13-May-2013 ✈ KATL - KMOB

Flight Track Log - Related Links

Times and Time Zones

All times are in EDT time to prevent confusion due to time zone crossing. See the ASQ4879 flight status page for this flight to view local times or setup timezone preferences in your user account.

Time Position Orientation Groundspeed Altitude Reporting Facility
EDT Latitude Longitude Course Direction KTS MPH feet Rate Location/Type
10:41AM 33.3400 -85.8814 255° West 373 429 24,900  Level Atlanta Center
10:42AM 33.3131 -86.0050 255° West 378 435 26,000 540 Climbing Atlanta Center
10:43AM 33.2281 -86.0975 222° Southwest 383 441 26,000  Level Atlanta Center
10:44AM 33.1325 -86.1894 219° Southwest 414 476 26,000  Level Atlanta Center
10:45AM 33.0328 -86.2836 218° Southwest 443 510 26,000  Level Atlanta Center
10:46AM 32.9289 -86.3775 217° Southwest 463 533 26,000  Level Atlanta Center
10:47AM 32.8269 -86.4711 218° Southwest 468 539 26,000  Level Atlanta Center
10:48AM 32.7311 -86.5625 219° Southwest 480 552 26,000  Level Atlanta Center
10:49AM 32.6289 -86.6581 218° Southwest 480 552 26,000  Level Atlanta Center
10:50AM 32.5225 -86.7536 217° Southwest 480 552 26,000  Level Atlanta Center
10:51AM 32.4158 -86.8511 218° Southwest 480 552 26,000 -60 Level Atlanta Center
10:52AM 32.3094 -86.9461 217° Southwest 485 558 25,900 -360 Descending Atlanta Center
10:53AM 32.2006 -87.0456 218° Southwest 485 558 25,300 -600 Descending Atlanta Center
10:54AM 32.0958 -87.1425 218° Southwest 491 565 24,700 -600 Descending Atlanta Center
10:55AM 31.9892 -87.2369 217° Southwest 491 565 24,100 -600 Descending Atlanta Center
10:56AM 31.8778 -87.3431 219° Southwest 491 565 23,500 -600 Descending Atlanta Center
10:57AM 31.7728 -87.4392 218° Southwest 480 552 22,900 -1,080 Descending Atlanta Center
10:59AM 31.5458 -87.6328 216° Southwest 457 526 20,100 -1,620 Descending Houston Center
11:00AM 31.4528 -87.7161 217° Southwest 424 488 17,800 -2,100 Descending Houston Center
11:02AM 31.3622 -87.7978 218° Southwest 412 474 15,800 -2,100 Descending Houston Center
11:03AM 31.2725 -87.8789 218° Southwest 408 470 13,500 -2,220 Descending Houston Center
11:04AM 31.1886 -87.9497 216° Southwest 375 432 11,300 -1,740 Descending Houston Center
11:05AM 31.0797 -87.9931 199° South 346 398 10,000 -1,560 Descending Houston Center
11:06AM 30.9997 -88.0242 198° South 308 354 8,100 -1,920 Descending Houston Center
11:07AM 30.9197 -88.0567 199° South 300 345 6,100 -1,920 Descending Houston Center
11:08AM 30.8403 -88.0875 198° South 299 344 4,200 -1,500 Descending Houston Center
11:09AM 30.7636 -88.0947 185° South 285 328 3,000 -600 Descending Houston Center
11:10AM 30.6869 -88.0925 179° South 277 319 3,000  Level Houston Center
11:11AM 30.6267 -88.0408 144° Southeast 269 310 3,000 -540 Level Houston Center
11:12AM 30.5483 -88.0492 185° South 277 319 1,900 -540 Descending Houston Center
11:13AM 30.5472 -88.1189 269° West 255 293 1,900  Level Houston Center
11:14AM 30.5900 -88.1614 319° Northwest 224 258 1,900 -240 Level Houston Center
11:15AM 30.6308 -88.1933 326° Northwest 197 227 1,500 -600 Descending Houston Center
11:16AM 30.6656 -88.2228 324° Northwest 175 201 700 -540 Descending Houston Center
11:17AM 30.7050 -88.2558 324° Northwest 166 191 400 -300 Descending Houston Center
11:19AM 30.6886 -88.2597 103° East  Level FlightAware Approximate
11:26AM 30.6914 -88.2428 103° East  Level Estimated